sensor_id;sensor_type;location;lat;lon;timestamp;pressure;altitude;pressure_sealevel;temperature;humidity
46448;BME280;32145;50.390;30.778;2022-10-04T00:02:22;98854.88;;;6.50;82.58
46448;BME280;32145;50.390;30.778;2022-10-04T00:05:14;98859.34;;;6.56;81.95
46448;BME280;32145;50.390;30.778;2022-10-04T00:08:18;98854.88;;;6.50;82.31
46448;BME280;32145;50.390;30.778;2022-10-04T00:11:07;98847.72;;;6.56;82.38
46448;BME280;32145;50.390;30.778;2022-10-04T00:13:57;98859.56;;;6.55;81.49
46448;BME280;32145;50.390;30.778;2022-10-04T00:16:43;98855.22;;;6.54;81.88
46448;BME280;32145;50.390;30.778;2022-10-04T00:19:39;98864.81;;;6.50;81.82
46448;BME280;32145;50.390;30.778;2022-10-04T00:22:26;98855.69;;;6.51;82.09
46448;BME280;32145;50.390;30.778;2022-10-04T00:25:17;98858.97;;;6.53;81.91
46448;BME280;32145;50.390;30.778;2022-10-04T00:28:26;98859.78;;;6.53;81.90
46448;BME280;32145;50.390;30.778;2022-10-04T00:31:19;98858.53;;;6.68;82.03
46448;BME280;32145;50.390;30.778;2022-10-04T00:37:55;98864.03;;;6.73;81.20
46448;BME280;32145;50.390;30.778;2022-10-04T00:40:46;98858.63;;;6.73;80.93
46448;BME280;32145;50.390;30.778;2022-10-04T00:43:36;98867.53;;;6.62;81.52
46448;BME280;32145;50.390;30.778;2022-10-04T00:46:26;98870.34;;;6.67;81.60
46448;BME280;32145;50.390;30.778;2022-10-04T00:49:12;98873.38;;;6.58;81.65
46448;BME280;32145;50.390;30.778;2022-10-04T00:52:00;98882.06;;;6.61;81.57
46448;BME280;32145;50.390;30.778;2022-10-04T00:54:49;98878.78;;;6.70;81.56
46448;BME280;32145;50.390;30.778;2022-10-04T00:57:39;98867.41;;;6.68;81.81
46448;BME280;32145;50.390;30.778;2022-10-04T01:00:25;98863.31;;;6.66;82.05
46448;BME280;32145;50.390;30.778;2022-10-04T01:03:13;98862.38;;;6.60;82.41
46448;BME280;32145;50.390;30.778;2022-10-04T01:06:03;98869.16;;;6.63;82.24
46448;BME280;32145;50.390;30.778;2022-10-04T01:08:50;98867.63;;;6.67;82.12
46448;BME280;32145;50.390;30.778;2022-10-04T01:11:37;98871.84;;;6.63;82.79
46448;BME280;32145;50.390;30.778;2022-10-04T01:14:30;98862.47;;;6.65;82.59
46448;BME280;32145;50.390;30.778;2022-10-04T01:17:19;98863.91;;;6.68;82.88
46448;BME280;32145;50.390;30.778;2022-10-04T01:20:12;98873.03;;;6.67;82.25
46448;BME280;32145;50.390;30.778;2022-10-04T01:23:09;98876.44;;;6.74;82.11
46448;BME280;32145;50.390;30.778;2022-10-04T01:25:53;98872.00;;;6.80;82.59
46448;BME280;32145;50.390;30.778;2022-10-04T01:28:37;98877.16;;;6.81;82.58
46448;BME280;32145;50.390;30.778;2022-10-04T01:31:21;98873.28;;;6.77;82.04
46448;BME280;32145;50.390;30.778;2022-10-04T01:34:06;98874.09;;;6.66;82.52
46448;BME280;32145;50.390;30.778;2022-10-04T01:36:52;98870.22;;;6.74;82.64
46448;BME280;32145;50.390;30.778;2022-10-04T01:39:39;98878.53;;;6.60;83.18
46448;BME280;32145;50.390;30.778;2022-10-04T01:42:27;98880.31;;;6.66;83.21
46448;BME280;32145;50.390;30.778;2022-10-04T01:45:14;98878.06;;;6.75;83.00
46448;BME280;32145;50.390;30.778;2022-10-04T01:48:01;98888.63;;;6.65;83.04
46448;BME280;32145;50.390;30.778;2022-10-04T01:50:50;98884.97;;;6.71;83.32
46448;BME280;32145;50.390;30.778;2022-10-04T01:53:43;98890.50;;;6.76;82.82
46448;BME280;32145;50.390;30.778;2022-10-04T01:56:33;98886.28;;;6.80;83.02
46448;BME280;32145;50.390;30.778;2022-10-04T01:59:25;98897.16;;;6.74;83.11
46448;BME280;32145;50.390;30.778;2022-10-04T02:02:19;98898.69;;;6.81;83.34
46448;BME280;32145;50.390;30.778;2022-10-04T02:05:09;98906.91;;;6.87;82.88
46448;BME280;32145;50.390;30.778;2022-10-04T02:07:55;98908.41;;;6.82;83.14
46448;BME280;32145;50.390;30.778;2022-10-04T02:10:39;98903.97;;;6.88;83.13
46448;BME280;32145;50.390;30.778;2022-10-04T02:13:26;98916.38;;;6.89;83.21
46448;BME280;32145;50.390;30.778;2022-10-04T02:16:12;98908.66;;;6.93;82.62
46448;BME280;32145;50.390;30.778;2022-10-04T02:18:57;98904.81;;;6.89;82.90
46448;BME280;32145;50.390;30.778;2022-10-04T02:21:43;98911.72;;;6.96;83.40
46448;BME280;32145;50.390;30.778;2022-10-04T02:24:28;98895.78;;;6.95;83.41
46448;BME280;32145;50.390;30.778;2022-10-04T02:27:13;98904.69;;;6.95;83.16
46448;BME280;32145;50.390;30.778;2022-10-04T02:30:04;98905.50;;;6.96;83.92
46448;BME280;32145;50.390;30.778;2022-10-04T02:32:52;98917.22;;;6.90;83.49
46448;BME280;32145;50.390;30.778;2022-10-04T02:35:42;98917.81;;;6.92;84.19
46448;BME280;32145;50.390;30.778;2022-10-04T02:38:31;98918.84;;;6.91;83.92
46448;BME280;32145;50.390;30.778;2022-10-04T02:41:21;98924.72;;;7.00;83.98
46448;BME280;32145;50.390;30.778;2022-10-04T02:44:13;98919.00;;;6.96;83.87
46448;BME280;32145;50.390;30.778;2022-10-04T02:47:06;98921.88;;;6.82;84.56
46448;BME280;32145;50.390;30.778;2022-10-04T02:49:54;98925.91;;;6.92;83.92
46448;BME280;32145;50.390;30.778;2022-10-04T02:52:44;98930.72;;;7.02;84.32
46448;BME280;32145;50.390;30.778;2022-10-04T02:55:30;98938.91;;;7.07;83.60
46448;BME280;32145;50.390;30.778;2022-10-04T02:58:17;98933.97;;;7.04;83.94
46448;BME280;32145;50.390;30.778;2022-10-04T03:01:02;98929.28;;;6.99;83.60
46448;BME280;32145;50.390;30.778;2022-10-04T03:03:47;98941.22;;;7.03;84.52
46448;BME280;32145;50.390;30.778;2022-10-04T03:06:32;98942.06;;;6.92;84.17
46448;BME280;32145;50.390;30.778;2022-10-04T03:09:18;98940.53;;;6.96;84.27
46448;BME280;32145;50.390;30.778;2022-10-04T03:12:04;98951.56;;;6.94;84.73
46448;BME280;32145;50.390;30.778;2022-10-04T03:14:51;98941.00;;;6.93;85.04
46448;BME280;32145;50.390;30.778;2022-10-04T03:17:38;98951.91;;;6.98;84.76
46448;BME280;32145;50.390;30.778;2022-10-04T03:20:25;98969.63;;;7.06;84.42
46448;BME280;32145;50.390;30.778;2022-10-04T03:23:10;98973.81;;;7.14;84.27
46448;BME280;32145;50.390;30.778;2022-10-04T03:26:00;98973.25;;;7.12;84.50
46448;BME280;32145;50.390;30.778;2022-10-04T03:28:46;98971.13;;;7.14;83.82
46448;BME280;32145;50.390;30.778;2022-10-04T03:31:32;98979.81;;;7.16;84.55
46448;BME280;32145;50.390;30.778;2022-10-04T03:34:19;98986.00;;;7.16;83.97
46448;BME280;32145;50.390;30.778;2022-10-04T03:37:10;98988.13;;;7.14;83.98
46448;BME280;32145;50.390;30.778;2022-10-04T03:39:56;98983.22;;;7.11;83.93
46448;BME280;32145;50.390;30.778;2022-10-04T03:42:42;98989.84;;;6.96;84.27
46448;BME280;32145;50.390;30.778;2022-10-04T03:45:27;98989.63;;;6.98;84.25
46448;BME280;32145;50.390;30.778;2022-10-04T03:48:14;98980.63;;;7.04;84.00
46448;BME280;32145;50.390;30.778;2022-10-04T03:51:01;98999.13;;;7.01;83.84
46448;BME280;32145;50.390;30.778;2022-10-04T03:53:51;98997.03;;;7.03;84.06
46448;BME280;32145;50.390;30.778;2022-10-04T03:56:36;98991.25;;;6.99;84.38
46448;BME280;32145;50.390;30.778;2022-10-04T03:59:22;98996.66;;;6.99;84.24
46448;BME280;32145;50.390;30.778;2022-10-04T04:02:12;98999.34;;;6.99;83.69
46448;BME280;32145;50.390;30.778;2022-10-04T04:05:05;98997.59;;;6.93;83.62
46448;BME280;32145;50.390;30.778;2022-10-04T04:08:00;99006.59;;;6.87;83.59
46448;BME280;32145;50.390;30.778;2022-10-04T04:10:49;99017.97;;;6.89;83.44
46448;BME280;32145;50.390;30.778;2022-10-04T04:13:45;99018.41;;;6.86;83.27
46448;BME280;32145;50.390;30.778;2022-10-04T04:16:31;99028.13;;;6.75;83.56
46448;BME280;32145;50.390;30.778;2022-10-04T04:19:17;99019.81;;;6.76;83.23
46448;BME280;32145;50.390;30.778;2022-10-04T04:22:05;99034.47;;;6.80;83.57
46448;BME280;32145;50.390;30.778;2022-10-04T04:24:50;99036.66;;;6.83;83.03
46448;BME280;32145;50.390;30.778;2022-10-04T04:27:37;99040.88;;;6.79;83.13
46448;BME280;32145;50.390;30.778;2022-10-04T04:30:22;99032.94;;;6.85;83.22
46448;BME280;32145;50.390;30.778;2022-10-04T04:33:15;99043.00;;;6.77;83.33
46448;BME280;32145;50.390;30.778;2022-10-04T04:36:05;99044.53;;;6.85;82.88
46448;BME280;32145;50.390;30.778;2022-10-04T04:38:50;99051.44;;;6.81;83.32
46448;BME280;32145;50.390;30.778;2022-10-04T04:41:34;99055.53;;;6.83;82.87
46448;BME280;32145;50.390;30.778;2022-10-04T04:44:20;99054.50;;;6.85;83.30
46448;BME280;32145;50.390;30.778;2022-10-04T04:47:05;99053.09;;;6.82;83.15
46448;BME280;32145;50.390;30.778;2022-10-04T04:49:52;99061.97;;;6.82;82.61
46448;BME280;32145;50.390;30.778;2022-10-04T04:52:37;99063.16;;;6.87;83.07
46448;BME280;32145;50.390;30.778;2022-10-04T04:55:25;99064.22;;;6.86;82.26
46448;BME280;32145;50.390;30.778;2022-10-04T04:58:15;99073.50;;;6.90;82.33
46448;BME280;32145;50.390;30.778;2022-10-04T05:01:05;99081.34;;;6.91;82.34
46448;BME280;32145;50.390;30.778;2022-10-04T05:07:13;99092.16;;;7.03;82.92
46448;BME280;32145;50.390;30.778;2022-10-04T05:09:59;99102.34;;;7.01;82.51
46448;BME280;32145;50.390;30.778;2022-10-04T05:12:43;99107.41;;;7.09;82.43
46448;BME280;32145;50.390;30.778;2022-10-04T05:15:32;99104.03;;;7.14;82.77
46448;BME280;32145;50.390;30.778;2022-10-04T05:18:27;99113.66;;;7.22;82.11
46448;BME280;32145;50.390;30.778;2022-10-04T05:21:16;99117.41;;;7.21;82.22
46448;BME280;32145;50.390;30.778;2022-10-04T05:24:09;99123.63;;;7.21;82.78
46448;BME280;32145;50.390;30.778;2022-10-04T05:26:56;99122.94;;;7.26;82.71
46448;BME280;32145;50.390;30.778;2022-10-04T05:29:53;99126.34;;;7.33;82.55
46448;BME280;32145;50.390;30.778;2022-10-04T05:32:49;99137.50;;;7.37;82.56
46448;BME280;32145;50.390;30.778;2022-10-04T05:35:42;99136.09;;;7.34;82.33
46448;BME280;32145;50.390;30.778;2022-10-04T05:38:33;99138.19;;;7.32;81.97
46448;BME280;32145;50.390;30.778;2022-10-04T05:41:23;99141.34;;;7.29;82.10
46448;BME280;32145;50.390;30.778;2022-10-04T05:44:22;99145.84;;;7.35;82.43
46448;BME280;32145;50.390;30.778;2022-10-04T05:47:07;99151.47;;;7.34;82.45
46448;BME280;32145;50.390;30.778;2022-10-04T05:49:53;99156.53;;;7.42;82.39
46448;BME280;32145;50.390;30.778;2022-10-04T05:52:39;99162.72;;;7.43;82.43
46448;BME280;32145;50.390;30.778;2022-10-04T05:55:27;99173.66;;;7.48;82.46
46448;BME280;32145;50.390;30.778;2022-10-04T05:58:25;99168.94;;;7.43;82.62
46448;BME280;32145;50.390;30.778;2022-10-04T06:01:24;99173.28;;;7.44;82.12
46448;BME280;32145;50.390;30.778;2022-10-04T06:04:21;99173.66;;;7.48;82.08
46448;BME280;32145;50.390;30.778;2022-10-04T06:07:15;99173.50;;;7.43;83.00
46448;BME280;32145;50.390;30.778;2022-10-04T06:10:27;99180.34;;;7.45;82.96
46448;BME280;32145;50.390;30.778;2022-10-04T06:13:26;99184.47;;;7.60;82.94
46448;BME280;32145;50.390;30.778;2022-10-04T06:16:25;99184.97;;;7.81;82.66
46448;BME280;32145;50.390;30.778;2022-10-04T06:19:26;99186.75;;;7.87;82.74
46448;BME280;32145;50.390;30.778;2022-10-04T06:22:17;99193.66;;;7.95;82.40
46448;BME280;32145;50.390;30.778;2022-10-04T06:25:04;99187.94;;;8.03;81.81
46448;BME280;32145;50.390;30.778;2022-10-04T06:27:56;99190.28;;;7.99;82.03
46448;BME280;32145;50.390;30.778;2022-10-04T06:34:19;99203.66;;;8.06;81.94
46448;BME280;32145;50.390;30.778;2022-10-04T06:37:29;99208.47;;;8.04;82.21
46448;BME280;32145;50.390;30.778;2022-10-04T06:40:43;99211.06;;;8.11;81.89
46448;BME280;32145;50.390;30.778;2022-10-04T06:43:44;99212.84;;;8.17;81.50
46448;BME280;32145;50.390;30.778;2022-10-04T06:46:37;99215.28;;;8.19;81.18
46448;BME280;32145;50.390;30.778;2022-10-04T06:49:34;99216.94;;;8.20;81.01
46448;BME280;32145;50.390;30.778;2022-10-04T06:55:43;99236.78;;;8.37;80.58
46448;BME280;32145;50.390;30.778;2022-10-04T06:58:55;99237.16;;;8.41;80.58
46448;BME280;32145;50.390;30.778;2022-10-04T07:01:48;99232.91;;;8.45;80.26
46448;BME280;32145;50.390;30.778;2022-10-04T07:04:37;99234.66;;;8.51;79.55
46448;BME280;32145;50.390;30.778;2022-10-04T07:07:27;99241.97;;;8.51;80.13
46448;BME280;32145;50.390;30.778;2022-10-04T07:10:22;99237.63;;;8.62;79.50
46448;BME280;32145;50.390;30.778;2022-10-04T07:13:29;99246.44;;;8.57;78.36
46448;BME280;32145;50.390;30.778;2022-10-04T07:16:38;99247.59;;;8.61;78.94
46448;BME280;32145;50.390;30.778;2022-10-04T07:19:33;99252.09;;;8.68;78.85
46448;BME280;32145;50.390;30.778;2022-10-04T07:22:23;99263.59;;;8.75;78.46
46448;BME280;32145;50.390;30.778;2022-10-04T07:25:12;99261.47;;;8.77;78.24
46448;BME280;32145;50.390;30.778;2022-10-04T07:28:02;99272.28;;;8.77;78.81
46448;BME280;32145;50.390;30.778;2022-10-04T07:30:57;99262.16;;;8.84;78.29
46448;BME280;32145;50.390;30.778;2022-10-04T07:33:47;99271.34;;;8.83;78.60
46448;BME280;32145;50.390;30.778;2022-10-04T07:36:40;99278.28;;;8.79;78.41
46448;BME280;32145;50.390;30.778;2022-10-04T07:39:28;99282.63;;;8.80;78.36
46448;BME280;32145;50.390;30.778;2022-10-04T07:42:20;99296.38;;;8.79;78.77
46448;BME280;32145;50.390;30.778;2022-10-04T07:45:11;99280.47;;;8.82;78.85
46448;BME280;32145;50.390;30.778;2022-10-04T07:48:03;99287.56;;;8.83;78.40
46448;BME280;32145;50.390;30.778;2022-10-04T07:51:00;99291.75;;;8.91;78.53
46448;BME280;32145;50.390;30.778;2022-10-04T07:53:50;99304.94;;;8.87;78.52
46448;BME280;32145;50.390;30.778;2022-10-04T07:56:40;99302.81;;;8.89;77.71
46448;BME280;32145;50.390;30.778;2022-10-04T07:59:35;99301.03;;;8.95;78.08
46448;BME280;32145;50.390;30.778;2022-10-04T08:02:30;99320.69;;;8.91;78.71
46448;BME280;32145;50.390;30.778;2022-10-04T08:05:21;99306.59;;;8.88;78.32
46448;BME280;32145;50.390;30.778;2022-10-04T08:08:27;99323.03;;;8.99;78.12
46448;BME280;32145;50.390;30.778;2022-10-04T08:11:22;99316.78;;;8.98;77.96
46448;BME280;32145;50.390;30.778;2022-10-04T08:14:17;99319.13;;;9.07;78.32
46448;BME280;32145;50.390;30.778;2022-10-04T08:17:18;99316.66;;;9.05;77.92
46448;BME280;32145;50.390;30.778;2022-10-04T08:20:19;99323.03;;;8.99;77.67
46448;BME280;32145;50.390;30.778;2022-10-04T08:26:37;99339.69;;;9.08;77.83
46448;BME280;32145;50.390;30.778;2022-10-04T08:29:33;99337.59;;;9.10;77.31
46448;BME280;32145;50.390;30.778;2022-10-04T08:32:29;99332.88;;;9.17;76.98
46448;BME280;32145;50.390;30.778;2022-10-04T08:35:27;99345.25;;;9.13;77.29
46448;BME280;32145;50.390;30.778;2022-10-04T08:38:23;99350.53;;;9.20;77.17
46448;BME280;32145;50.390;30.778;2022-10-04T08:41:41;99355.22;;;9.12;77.53
46448;BME280;32145;50.390;30.778;2022-10-04T08:45:00;99363.81;;;9.09;77.82
46448;BME280;32145;50.390;30.778;2022-10-04T08:48:22;99368.19;;;9.10;77.89
46448;BME280;32145;50.390;30.778;2022-10-04T08:51:42;99367.34;;;9.10;78.15
46448;BME280;32145;50.390;30.778;2022-10-04T08:58:11;99373.69;;;9.03;77.96
46448;BME280;32145;50.390;30.778;2022-10-04T09:00:59;99373.81;;;8.97;77.82
46448;BME280;32145;50.390;30.778;2022-10-04T09:04:14;99390.75;;;9.04;77.55
46448;BME280;32145;50.390;30.778;2022-10-04T09:07:19;99390.63;;;8.99;77.28
46448;BME280;32145;50.390;30.778;2022-10-04T09:10:34;99392.03;;;9.01;77.71
46448;BME280;32145;50.390;30.778;2022-10-04T09:13:35;99405.31;;;9.03;77.92
46448;BME280;32145;50.390;30.778;2022-10-04T09:16:27;99404.50;;;9.02;78.00
46448;BME280;32145;50.390;30.778;2022-10-04T09:19:21;99405.09;;;9.05;77.30
46448;BME280;32145;50.390;30.778;2022-10-04T09:22:16;99414.97;;;8.99;77.77
46448;BME280;32145;50.390;30.778;2022-10-04T09:25:21;99412.13;;;8.94;77.89
46448;BME280;32145;50.390;30.778;2022-10-04T09:28:32;99422.47;;;8.97;78.24
46448;BME280;32145;50.390;30.778;2022-10-04T09:34:39;99432.44;;;8.96;78.29
46448;BME280;32145;50.390;30.778;2022-10-04T09:37:37;99430.25;;;8.93;78.87
46448;BME280;32145;50.390;30.778;2022-10-04T09:40:56;99436.69;;;9.04;78.90
46448;BME280;32145;50.390;30.778;2022-10-04T09:47:33;99448.00;;;9.25;78.23
46448;BME280;32145;50.390;30.778;2022-10-04T09:50:54;99448.09;;;9.30;78.80
46448;BME280;32145;50.390;30.778;2022-10-04T09:53:53;99455.38;;;9.41;78.41
46448;BME280;32145;50.390;30.778;2022-10-04T09:56:54;99456.81;;;9.56;77.97
46448;BME280;32145;50.390;30.778;2022-10-04T09:59:57;99451.84;;;9.65;78.08
46448;BME280;32145;50.390;30.778;2022-10-04T10:06:27;99455.25;;;9.60;77.60
46448;BME280;32145;50.390;30.778;2022-10-04T10:09:26;99457.59;;;9.69;78.45
46448;BME280;32145;50.390;30.778;2022-10-04T10:12:25;99459.13;;;9.64;77.64
46448;BME280;32145;50.390;30.778;2022-10-04T10:15:14;99459.00;;;9.71;78.51
46448;BME280;32145;50.390;30.778;2022-10-04T10:18:08;99467.72;;;9.73;77.58
46448;BME280;32145;50.390;30.778;2022-10-04T10:24:27;99468.16;;;9.94;77.78
46448;BME280;32145;50.390;30.778;2022-10-04T10:27:36;99470.44;;;9.73;77.17
46448;BME280;32145;50.390;30.778;2022-10-04T10:30:26;99468.31;;;9.51;77.84
46448;BME280;32145;50.390;30.778;2022-10-04T10:33:33;99481.63;;;9.53;77.57
46448;BME280;32145;50.390;30.778;2022-10-04T10:36:32;99476.22;;;9.53;77.07
46448;BME280;32145;50.390;30.778;2022-10-04T10:43:05;99472.78;;;9.46;78.57
46448;BME280;32145;50.390;30.778;2022-10-04T10:46:03;99478.47;;;9.32;77.85
46448;BME280;32145;50.390;30.778;2022-10-04T10:49:07;99482.34;;;9.36;78.72
46448;BME280;32145;50.390;30.778;2022-10-04T10:52:28;99488.44;;;9.32;78.82
46448;BME280;32145;50.390;30.778;2022-10-04T10:56:00;99495.97;;;9.30;78.81
46448;BME280;32145;50.390;30.778;2022-10-04T11:12:21;99510.66;;;9.22;79.18
46448;BME280;32145;50.390;30.778;2022-10-04T11:22:24;99515.28;;;9.69;77.92
46448;BME280;32145;50.390;30.778;2022-10-04T11:28:59;99513.13;;;9.71;76.46
46448;BME280;32145;50.390;30.778;2022-10-04T11:32:10;99521.25;;;9.71;75.98
46448;BME280;32145;50.390;30.778;2022-10-04T11:35:31;99524.09;;;9.64;75.69
46448;BME280;32145;50.390;30.778;2022-10-04T11:38:26;99521.75;;;9.56;76.90
46448;BME280;32145;50.390;30.778;2022-10-04T11:41:21;99524.00;;;9.59;76.78
46448;BME280;32145;50.390;30.778;2022-10-04T11:44:29;99529.97;;;9.61;76.24
46448;BME280;32145;50.390;30.778;2022-10-04T11:47:27;99531.63;;;9.50;76.22
46448;BME280;32145;50.390;30.778;2022-10-04T11:50:35;99528.78;;;9.57;75.68
46448;BME280;32145;50.390;30.778;2022-10-04T11:53:32;99528.44;;;9.65;75.88
46448;BME280;32145;50.390;30.778;2022-10-04T11:59:45;99523.63;;;9.67;75.53
46448;BME280;32145;50.390;30.778;2022-10-04T12:03:03;99532.91;;;9.72;75.22
46448;BME280;32145;50.390;30.778;2022-10-04T12:05:57;99529.50;;;9.88;74.48
46448;BME280;32145;50.390;30.778;2022-10-04T12:08:56;99533.13;;;9.94;73.39
46448;BME280;32145;50.390;30.778;2022-10-04T12:15:25;99533.00;;;10.01;72.53
46448;BME280;32145;50.390;30.778;2022-10-04T12:22:00;99527.81;;;10.11;71.71
46448;BME280;32145;50.390;30.778;2022-10-04T12:24:57;99527.75;;;10.23;72.27
46448;BME280;32145;50.390;30.778;2022-10-04T12:31:27;99531.09;;;10.13;70.61
46448;BME280;32145;50.390;30.778;2022-10-04T12:34:16;99535.34;;;10.09;71.01
46448;BME280;32145;50.390;30.778;2022-10-04T12:37:15;99541.34;;;10.11;70.91
46448;BME280;32145;50.390;30.778;2022-10-04T12:40:22;99527.66;;;10.18;70.49
46448;BME280;32145;50.390;30.778;2022-10-04T12:43:14;99537.44;;;10.19;70.47
46448;BME280;32145;50.390;30.778;2022-10-04T12:46:10;99545.09;;;10.22;70.57
46448;BME280;32145;50.390;30.778;2022-10-04T12:49:07;99545.31;;;10.32;70.60
46448;BME280;32145;50.390;30.778;2022-10-04T12:52:02;99537.28;;;10.38;69.60
46448;BME280;32145;50.390;30.778;2022-10-04T12:54:54;99555.78;;;10.29;69.19
46448;BME280;32145;50.390;30.778;2022-10-04T12:57:43;99554.00;;;10.35;69.40
46448;BME280;32145;50.390;30.778;2022-10-04T13:00:33;99553.66;;;10.31;68.94
46448;BME280;32145;50.390;30.778;2022-10-04T13:03:27;99556.75;;;10.23;68.96
46448;BME280;32145;50.390;30.778;2022-10-04T13:06:21;99556.28;;;10.26;69.81
46448;BME280;32145;50.390;30.778;2022-10-04T13:09:11;99568.91;;;10.20;69.80
46448;BME280;32145;50.390;30.778;2022-10-04T13:12:00;99568.66;;;10.22;69.55
46448;BME280;32145;50.390;30.778;2022-10-04T13:15:08;99574.78;;;10.17;69.77
46448;BME280;32145;50.390;30.778;2022-10-04T13:18:04;99572.59;;;10.02;70.07
46448;BME280;32145;50.390;30.778;2022-10-04T13:20:59;99580.72;;;10.02;70.26
46448;BME280;32145;50.390;30.778;2022-10-04T13:23:56;99583.03;;;9.98;69.96
46448;BME280;32145;50.390;30.778;2022-10-04T13:26:45;99579.63;;;10.03;70.59
46448;BME280;32145;50.390;30.778;2022-10-04T13:29:35;99590.47;;;10.03;70.69
46448;BME280;32145;50.390;30.778;2022-10-04T13:32:24;99586.13;;;10.02;71.00
46448;BME280;32145;50.390;30.778;2022-10-04T13:35:16;99588.81;;;10.02;70.81
46448;BME280;32145;50.390;30.778;2022-10-04T13:38:24;99597.06;;;10.07;71.20
46448;BME280;32145;50.390;30.778;2022-10-04T13:41:26;99598.00;;;10.01;71.63
46448;BME280;32145;50.390;30.778;2022-10-04T13:44:25;99599.66;;;10.02;71.61
46448;BME280;32145;50.390;30.778;2022-10-04T13:47:27;99599.41;;;9.91;71.38
46448;BME280;32145;50.390;30.778;2022-10-04T13:50:31;99605.75;;;9.85;72.40
46448;BME280;32145;50.390;30.778;2022-10-04T13:53:28;99612.84;;;9.86;72.44
46448;BME280;32145;50.390;30.778;2022-10-04T13:56:37;99614.13;;;9.84;72.44
46448;BME280;32145;50.390;30.778;2022-10-04T13:59:32;99615.78;;;9.85;73.02
46448;BME280;32145;50.390;30.778;2022-10-04T14:09:20;99627.19;;;9.75;73.49
46448;BME280;32145;50.390;30.778;2022-10-04T14:12:28;99636.13;;;9.63;73.99
46448;BME280;32145;50.390;30.778;2022-10-04T14:15:57;99646.69;;;9.53;75.16
46448;BME280;32145;50.390;30.778;2022-10-04T14:19:01;99642.69;;;9.44;75.12
46448;BME280;32145;50.390;30.778;2022-10-04T14:29:07;99664.59;;;9.23;75.32
46448;BME280;32145;50.390;30.778;2022-10-04T14:32:18;99665.06;;;9.20;74.94
46448;BME280;32145;50.390;30.778;2022-10-04T14:35:13;99671.19;;;9.15;75.43
46448;BME280;32145;50.390;30.778;2022-10-04T14:38:24;99673.13;;;9.08;76.17
46448;BME280;32145;50.390;30.778;2022-10-04T14:41:34;99686.84;;;8.95;76.98
46448;BME280;32145;50.390;30.778;2022-10-04T14:44:56;99682.16;;;9.02;76.63
46448;BME280;32145;50.390;30.778;2022-10-04T14:48:06;99691.63;;;8.93;76.32
46448;BME280;32145;50.390;30.778;2022-10-04T14:51:28;99691.28;;;8.89;76.18
46448;BME280;32145;50.390;30.778;2022-10-04T14:54:33;99693.59;;;8.85;76.52
46448;BME280;32145;50.390;30.778;2022-10-04T14:57:37;99699.63;;;8.87;76.99
46448;BME280;32145;50.390;30.778;2022-10-04T15:00:33;99703.59;;;8.85;77.10
46448;BME280;32145;50.390;30.778;2022-10-04T15:03:37;99709.22;;;8.83;76.75
46448;BME280;32145;50.390;30.778;2022-10-04T15:06:41;99710.72;;;8.79;77.10
46448;BME280;32145;50.390;30.778;2022-10-04T15:09:51;99712.59;;;8.79;77.33
46448;BME280;32145;50.390;30.778;2022-10-04T15:12:57;99720.09;;;8.76;77.44
46448;BME280;32145;50.390;30.778;2022-10-04T15:15:56;99722.75;;;8.64;78.16
46448;BME280;32145;50.390;30.778;2022-10-04T15:18:50;99730.22;;;8.62;78.18
46448;BME280;32145;50.390;30.778;2022-10-04T15:21:50;99733.19;;;8.61;78.70
46448;BME280;32145;50.390;30.778;2022-10-04T15:24:47;99734.00;;;8.61;78.71
46448;BME280;32145;50.390;30.778;2022-10-04T15:27:44;99737.38;;;8.57;78.54
46448;BME280;32145;50.390;30.778;2022-10-04T15:30:42;99740.88;;;8.57;79.02
46448;BME280;32145;50.390;30.778;2022-10-04T15:33:37;99737.13;;;8.58;78.75
46448;BME280;32145;50.390;30.778;2022-10-04T15:36:32;99741.53;;;8.52;78.91
46448;BME280;32145;50.390;30.778;2022-10-04T15:39:59;99748.41;;;8.55;79.67
46448;BME280;32145;50.390;30.778;2022-10-04T15:43:15;99750.63;;;8.58;79.21
46448;BME280;32145;50.390;30.778;2022-10-04T15:49:36;99761.31;;;8.53;78.98
46448;BME280;32145;50.390;30.778;2022-10-04T15:52:43;99763.56;;;8.56;79.55
46448;BME280;32145;50.390;30.778;2022-10-04T15:55:50;99768.16;;;8.49;79.43
46448;BME280;32145;50.390;30.778;2022-10-04T15:58:50;99778.53;;;8.52;79.67
46448;BME280;32145;50.390;30.778;2022-10-04T16:01:57;99781.25;;;8.52;79.53
46448;BME280;32145;50.390;30.778;2022-10-04T16:04:56;99778.53;;;8.52;79.38
46448;BME280;32145;50.390;30.778;2022-10-04T16:08:16;99788.31;;;8.53;79.36
46448;BME280;32145;50.390;30.778;2022-10-04T16:11:43;99796.00;;;8.56;79.80
46448;BME280;32145;50.390;30.778;2022-10-04T16:14:53;99803.03;;;8.57;79.45
46448;BME280;32145;50.390;30.778;2022-10-04T16:17:59;99796.44;;;8.53;79.36
46448;BME280;32145;50.390;30.778;2022-10-04T16:21:04;99804.31;;;8.55;79.52
46448;BME280;32145;50.390;30.778;2022-10-04T16:24:37;99796.44;;;8.53;79.21
46448;BME280;32145;50.390;30.778;2022-10-04T16:27:44;99794.75;;;8.52;79.64
46448;BME280;32145;50.390;30.778;2022-10-04T16:30:36;99805.41;;;8.47;79.56
46448;BME280;32145;50.390;30.778;2022-10-04T16:33:28;99813.50;;;8.47;79.82
46448;BME280;32145;50.390;30.778;2022-10-04T16:36:20;99808.97;;;8.41;80.04
46448;BME280;32145;50.390;30.778;2022-10-04T16:39:09;99814.38;;;8.41;79.85
46448;BME280;32145;50.390;30.778;2022-10-04T16:41:58;99813.81;;;8.32;80.27
46448;BME280;32145;50.390;30.778;2022-10-04T16:44:49;99818.19;;;8.33;80.30
46448;BME280;32145;50.390;30.778;2022-10-04T16:47:37;99829.16;;;8.38;80.12
46448;BME280;32145;50.390;30.778;2022-10-04T16:50:47;99822.63;;;8.46;79.96
46448;BME280;32145;50.390;30.778;2022-10-04T16:53:45;99827.22;;;8.45;79.83
46448;BME280;32145;50.390;30.778;2022-10-04T17:00:31;99832.84;;;8.44;79.71
46448;BME280;32145;50.390;30.778;2022-10-04T17:03:21;99833.06;;;8.42;79.93
46448;BME280;32145;50.390;30.778;2022-10-04T17:06:13;99835.16;;;8.40;79.80
46448;BME280;32145;50.390;30.778;2022-10-04T17:09:14;99828.66;;;8.48;79.47